createdAt,value
2022-09-12T00:01:23.629Z,17.88
2022-09-12T00:03:58.273Z,17.84
2022-09-12T00:06:30.228Z,17.82
2022-09-12T00:09:02.220Z,17.81
2022-09-12T00:11:30.548Z,17.75
2022-09-12T00:14:00.797Z,17.71
2022-09-12T00:16:31.989Z,17.68
2022-09-12T00:19:00.780Z,17.65
2022-09-12T00:21:28.694Z,17.63
2022-09-12T00:23:56.805Z,17.61
2022-09-12T00:26:24.889Z,17.56
2022-09-12T00:28:52.952Z,17.55
2022-09-12T00:31:25.355Z,17.54
2022-09-12T00:33:56.618Z,17.50
2022-09-12T00:36:26.770Z,17.49
2022-09-12T00:38:55.176Z,17.50
2022-09-12T00:41:32.819Z,17.51
2022-09-12T00:44:10.791Z,17.49
2022-09-12T00:47:07.588Z,17.47
2022-09-12T00:50:00.987Z,17.46
2022-09-12T00:52:43.966Z,17.49
2022-09-12T00:55:24.355Z,17.44
2022-09-12T00:58:00.239Z,17.40
2022-09-12T01:00:28.968Z,17.39
2022-09-12T01:03:07.890Z,17.37
2022-09-12T01:05:40.189Z,17.37
2022-09-12T01:08:08.045Z,17.34
2022-09-12T01:10:37.963Z,17.35
2022-09-12T01:13:09.212Z,17.38
2022-09-12T01:15:39.725Z,17.45
2022-09-12T01:18:32.810Z,17.53
2022-09-12T01:21:56.046Z,17.59
2022-09-12T01:24:51.686Z,17.60
2022-09-12T01:27:57.717Z,17.61
2022-09-12T01:30:56.268Z,17.62
2022-09-12T01:33:55.572Z,17.63
2022-09-12T01:36:29.605Z,17.66
2022-09-12T01:39:25.116Z,17.67
2022-09-12T01:42:04.090Z,17.64
2022-09-12T01:45:03.467Z,17.61
2022-09-12T01:47:46.822Z,17.59
2022-09-12T01:50:27.400Z,17.53
2022-09-12T01:53:04.795Z,17.50
2022-09-12T01:55:46.376Z,17.46
2022-09-12T01:58:22.590Z,17.39
2022-09-12T02:01:11.331Z,17.35
2022-09-12T02:03:52.439Z,17.32
2022-09-12T02:06:40.261Z,17.30
2022-09-12T02:09:35.888Z,17.29
2022-09-12T02:12:06.242Z,17.26
2022-09-12T02:14:52.060Z,17.22
2022-09-12T02:17:26.328Z,17.18
2022-09-12T02:20:03.491Z,17.10
2022-09-12T02:22:34.124Z,17.08
2022-09-12T02:25:05.941Z,17.01
2022-09-12T02:27:44.794Z,17.02
2022-09-12T02:30:17.688Z,17.04
2022-09-12T02:33:01.908Z,17.04
2022-09-12T02:36:15.436Z,16.99
2022-09-12T02:38:48.046Z,16.99
2022-09-12T02:41:20.807Z,16.94
2022-09-12T02:43:50.800Z,16.89
2022-09-12T02:46:47.181Z,16.84
2022-09-12T02:49:16.934Z,16.86
2022-09-12T02:51:46.674Z,16.81
2022-09-12T02:54:17.686Z,16.78
2022-09-12T02:56:46.628Z,16.77
2022-09-12T02:59:19.427Z,16.74
2022-09-12T03:02:14.988Z,16.74
2022-09-12T03:05:23.223Z,16.68
2022-09-12T03:08:37.428Z,16.64
2022-09-12T03:12:02.318Z,16.62
2022-09-12T03:15:20.757Z,16.63
2022-09-12T03:18:43.786Z,16.60
2022-09-12T03:21:45.863Z,16.64
2022-09-12T03:24:38.181Z,16.64
2022-09-12T03:27:16.725Z,16.65
2022-09-12T03:29:47.976Z,16.63
2022-09-12T03:32:16.221Z,16.62
2022-09-12T03:34:44.068Z,16.61
2022-09-12T03:37:11.822Z,16.61
2022-09-12T03:39:39.702Z,16.62
2022-09-12T03:42:07.650Z,16.60
2022-09-12T03:44:35.390Z,16.57
2022-09-12T03:47:04.074Z,16.53
2022-09-12T03:49:32.992Z,16.53
2022-09-12T03:52:00.840Z,16.51
2022-09-12T03:54:28.722Z,16.50
2022-09-12T03:56:56.472Z,16.50
2022-09-12T03:59:24.198Z,16.50
2022-09-12T04:01:52.003Z,16.49
2022-09-12T04:04:19.786Z,16.45
2022-09-12T04:06:47.528Z,16.47
2022-09-12T04:09:15.365Z,16.45
2022-09-12T04:11:43.072Z,16.43
2022-09-12T04:14:10.919Z,16.41
2022-09-12T04:16:38.734Z,16.40
2022-09-12T04:19:06.561Z,16.39
2022-09-12T04:21:34.600Z,16.38
2022-09-12T04:24:02.619Z,16.36
2022-09-12T04:26:31.796Z,16.33
2022-09-12T04:28:59.552Z,16.31
2022-09-12T04:31:27.636Z,16.29
2022-09-12T04:33:58.005Z,16.28
2022-09-12T04:36:28.025Z,16.26
2022-09-12T04:38:56.355Z,16.22
2022-09-12T04:41:28.518Z,16.21
2022-09-12T04:44:02.177Z,16.21
2022-09-12T04:46:33.677Z,16.19
2022-09-12T04:49:02.013Z,16.14
2022-09-12T04:51:36.292Z,16.11
2022-09-12T04:54:15.178Z,16.08
2022-09-12T04:56:46.373Z,16.05
2022-09-12T04:59:16.244Z,16.08
2022-09-12T05:01:44.083Z,16.10
2022-09-12T05:04:13.353Z,16.13
2022-09-12T05:06:42.654Z,16.17
2022-09-12T05:09:14.154Z,16.20
2022-09-12T05:12:03.621Z,16.17
2022-09-12T05:14:33.094Z,16.21
2022-09-12T05:17:02.031Z,16.20
2022-09-12T05:19:31.078Z,16.21
2022-09-12T05:21:59.617Z,16.21
2022-09-12T05:24:27.618Z,16.15
2022-09-12T05:26:55.365Z,16.17
2022-09-12T05:29:25.267Z,16.19
2022-09-12T05:31:53.269Z,16.20
2022-09-12T05:34:21.650Z,16.21
2022-09-12T05:36:49.558Z,16.19
2022-09-12T05:39:18.566Z,16.17
2022-09-12T05:41:47.364Z,16.17
2022-09-12T05:44:15.377Z,16.20
2022-09-12T05:46:45.647Z,16.25
2022-09-12T05:49:14.675Z,16.29
2022-09-12T05:51:45.478Z,16.37
2022-09-12T05:54:18.107Z,16.44
2022-09-12T05:56:47.297Z,16.49
2022-09-12T05:59:21.245Z,16.54
2022-09-12T06:01:49.292Z,16.61
2022-09-12T06:04:17.618Z,16.63
2022-09-12T06:06:46.949Z,16.67
2022-09-12T06:09:17.346Z,16.70
2022-09-12T06:11:46.567Z,16.72
2022-09-12T06:14:16.884Z,16.76
2022-09-12T06:16:46.324Z,16.79
2022-09-12T06:19:20.260Z,16.81
2022-09-12T06:21:49.785Z,16.84
2022-09-12T06:24:18.996Z,16.89
2022-09-12T06:26:52.716Z,16.95
2022-09-12T06:29:20.563Z,17.08
2022-09-12T06:31:48.343Z,17.07
2022-09-12T06:34:16.613Z,17.05
2022-09-12T06:36:47.575Z,17.06
2022-09-12T06:39:18.782Z,17.09
2022-09-12T06:41:48.797Z,17.11
2022-09-12T06:44:22.500Z,17.18
2022-09-12T06:46:50.705Z,17.24
2022-09-12T06:49:18.596Z,17.27
2022-09-12T06:51:46.420Z,17.31
2022-09-12T06:54:17.015Z,17.38
2022-09-12T06:56:45.334Z,17.44
2022-09-12T06:59:13.775Z,17.51
2022-09-12T07:01:42.103Z,17.57
2022-09-12T07:04:10.599Z,17.64
2022-09-12T07:06:41.981Z,17.70
2022-09-12T07:09:14.053Z,17.78
2022-09-12T07:11:42.998Z,17.83
2022-09-12T07:14:14.080Z,17.89
2022-09-12T07:16:42.682Z,17.92
2022-09-12T07:19:12.517Z,17.96
2022-09-12T07:21:41.255Z,17.99
2022-09-12T07:24:10.887Z,18.04
2022-09-12T07:26:40.791Z,18.07
2022-09-12T07:29:35.927Z,18.15
2022-09-12T07:32:06.610Z,18.24
2022-09-12T07:34:34.863Z,18.28
2022-09-12T07:37:02.701Z,18.32
2022-09-12T07:39:30.467Z,18.36
2022-09-12T07:45:42.235Z,18.12
2022-09-12T07:48:10.629Z,18.22
2022-09-12T07:50:44.535Z,18.39
2022-09-12T07:53:13.137Z,18.55
2022-09-12T07:55:40.858Z,18.64
2022-09-12T07:58:08.627Z,18.72
2022-09-12T08:00:37.942Z,18.83
2022-09-12T08:03:07.359Z,18.93
2022-09-12T08:05:35.268Z,19.02
2022-09-12T08:08:03.658Z,19.11
2022-09-12T08:10:31.568Z,19.17
2022-09-12T08:12:59.540Z,19.26
2022-09-12T08:15:27.410Z,19.34
2022-09-12T08:17:55.260Z,19.38
2022-09-12T08:20:27.693Z,19.46
2022-09-12T08:22:56.520Z,19.54
2022-09-12T08:25:24.256Z,19.59
2022-09-12T08:27:52.279Z,19.62
2022-09-12T08:30:20.125Z,19.65
2022-09-12T08:32:47.950Z,19.70
2022-09-12T08:35:16.037Z,19.77
2022-09-12T08:37:43.822Z,19.80
2022-09-12T08:40:17.090Z,19.87
2022-09-12T08:43:08.500Z,19.95
2022-09-12T08:45:54.295Z,19.98
2022-09-12T08:48:22.289Z,20.01
2022-09-12T08:50:50.228Z,20.03
2022-09-12T08:53:24.626Z,20.09
2022-09-12T08:55:58.791Z,20.17
2022-09-12T08:58:29.130Z,20.21
2022-09-12T09:01:24.713Z,20.28
2022-09-12T09:04:33.072Z,20.37
2022-09-12T09:07:40.919Z,20.45
2022-09-12T09:10:28.136Z,20.54
2022-09-12T09:14:05.579Z,20.57
2022-09-12T09:16:41.265Z,20.68
2022-09-12T09:19:18.301Z,20.74
2022-09-12T09:22:17.217Z,20.79
2022-09-12T09:25:02.595Z,20.88
2022-09-12T09:27:54.545Z,20.95
2022-09-12T09:30:22.283Z,21.04
2022-09-12T09:32:56.018Z,21.11
2022-09-12T09:35:46.578Z,21.17
2022-09-12T09:38:49.306Z,21.21
2022-09-12T09:42:11.623Z,21.26
2022-09-12T09:44:39.707Z,21.29
2022-09-12T09:47:12.609Z,21.33
2022-09-12T09:49:40.861Z,21.42
2022-09-12T09:52:11.985Z,21.49
2022-09-12T09:54:43.462Z,21.57
2022-09-12T09:57:36.195Z,21.68
2022-09-12T10:00:32.471Z,21.75
2022-09-12T10:03:13.191Z,21.82
2022-09-12T10:06:18.804Z,21.89
2022-09-12T10:08:48.023Z,21.96
2022-09-12T10:11:15.762Z,22.00
2022-09-12T10:13:54.539Z,22.04
2022-09-12T10:16:31.765Z,22.13
2022-09-12T10:19:02.841Z,22.19
2022-09-12T10:21:47.586Z,22.25
2022-09-12T10:24:34.070Z,22.34
2022-09-12T10:27:13.340Z,22.39
2022-09-12T10:29:54.649Z,22.41
2022-09-12T10:32:31.371Z,22.41
2022-09-12T10:35:30.514Z,22.41
2022-09-12T10:38:10.846Z,22.48
2022-09-12T10:40:43.129Z,22.55
2022-09-12T10:43:42.374Z,22.63
2022-09-12T10:46:19.394Z,22.68
2022-09-12T10:49:11.811Z,22.71
2022-09-12T10:51:39.549Z,22.79
2022-09-12T10:54:13.097Z,22.83
2022-09-12T10:57:32.034Z,23.08
2022-09-12T11:00:20.182Z,23.09
2022-09-12T11:03:17.768Z,23.09
2022-09-12T11:05:52.276Z,23.15
2022-09-12T11:09:20.285Z,23.18
2022-09-12T11:12:09.697Z,23.25
2022-09-12T11:15:21.515Z,23.31
2022-09-12T11:18:13.978Z,23.35
2022-09-12T11:21:12.005Z,23.42
2022-09-12T11:24:13.849Z,23.48
2022-09-12T11:27:38.071Z,23.56
2022-09-12T11:30:15.771Z,23.64
2022-09-12T11:33:25.452Z,23.71
2022-09-12T11:35:55.802Z,23.80
2022-09-12T11:38:40.578Z,23.84
2022-09-12T11:41:23.390Z,23.87
2022-09-12T11:43:58.846Z,23.92
2022-09-12T11:46:38.177Z,23.97
2022-09-12T11:49:17.050Z,24.01
2022-09-12T11:52:08.806Z,24.09
2022-09-12T11:54:38.458Z,24.14
2022-09-12T11:57:23.681Z,24.20
2022-09-12T12:00:18.304Z,24.29
2022-09-12T12:03:07.022Z,24.35
2022-09-12T12:05:37.650Z,24.39
2022-09-12T12:08:06.633Z,24.41
2022-09-12T12:10:49.986Z,24.49
2022-09-12T12:13:55.293Z,24.56
2022-09-12T12:16:37.756Z,24.65
2022-09-12T12:19:34.313Z,24.72
2022-09-12T12:22:24.429Z,24.79
2022-09-12T12:25:29.015Z,24.85
2022-09-12T12:28:02.155Z,24.95
2022-09-12T12:30:29.906Z,25.06
2022-09-12T12:33:27.307Z,25.14
2022-09-12T12:36:01.031Z,25.31
2022-09-12T12:38:30.923Z,25.35
2022-09-12T12:41:17.235Z,25.42
2022-09-12T12:43:56.561Z,25.48
2022-09-12T12:46:27.641Z,25.57
2022-09-12T12:49:20.593Z,25.68
2022-09-12T12:51:54.025Z,25.80
2022-09-12T12:54:41.138Z,25.88
2022-09-12T12:57:18.002Z,26.02
2022-09-12T13:00:16.182Z,26.08
2022-09-12T13:02:59.754Z,26.15
2022-09-12T13:05:31.261Z,26.20
2022-09-12T13:08:11.506Z,26.30
2022-09-12T13:10:48.744Z,26.39
2022-09-12T13:13:34.083Z,26.47
2022-09-12T13:16:02.382Z,26.55
2022-09-12T13:18:48.326Z,26.63
2022-09-12T13:21:21.756Z,26.75
2022-09-12T13:24:17.174Z,26.84
2022-09-12T13:26:47.576Z,26.92
2022-09-12T13:29:19.776Z,27.04
2022-09-12T13:31:58.069Z,27.15
2022-09-12T13:34:41.733Z,27.28
2022-09-12T13:38:04.140Z,27.39
2022-09-12T13:41:13.876Z,27.45
2022-09-12T13:43:47.645Z,27.53
2022-09-12T13:46:31.386Z,27.57
2022-09-12T13:49:05.873Z,27.72
2022-09-12T13:51:34.149Z,27.83
2022-09-12T13:54:05.389Z,27.97
2022-09-12T13:56:33.280Z,28.12
2022-09-12T13:59:03.057Z,28.18
2022-09-12T14:01:44.327Z,28.32
2022-09-12T14:04:36.957Z,28.37
2022-09-12T14:07:22.467Z,28.53
2022-09-12T14:10:00.074Z,28.59
2022-09-12T14:12:32.782Z,28.67
2022-09-12T14:15:01.023Z,28.76
2022-09-12T14:17:36.187Z,28.86
2022-09-12T14:20:18.553Z,28.99
2022-09-12T14:22:50.912Z,29.10
2022-09-12T14:25:25.924Z,29.18
2022-09-12T14:27:56.665Z,29.24
2022-09-12T14:30:32.914Z,29.36
2022-09-12T14:33:12.893Z,29.47
2022-09-12T14:35:49.980Z,29.59
2022-09-12T14:38:17.576Z,29.70
2022-09-12T14:40:49.277Z,29.79
2022-09-12T14:43:31.618Z,29.91
2022-09-12T14:46:15.887Z,30.02
2022-09-12T14:48:53.357Z,30.01
2022-09-12T14:51:28.709Z,30.07
2022-09-12T14:53:56.617Z,30.15
2022-09-12T14:56:44.158Z,30.23
2022-09-12T14:59:36.247Z,30.30
2022-09-12T15:02:23.168Z,30.35
2022-09-12T15:04:52.310Z,30.35
2022-09-12T15:07:41.903Z,30.39
2022-09-12T15:10:31.454Z,30.45
2022-09-12T15:13:12.050Z,30.47
2022-09-12T15:15:42.879Z,30.42
2022-09-12T15:18:10.940Z,30.44
2022-09-12T15:20:41.543Z,30.47
2022-09-12T15:23:30.046Z,30.50
2022-09-12T15:25:57.844Z,30.53
2022-09-12T15:28:26.929Z,30.52
2022-09-12T15:30:57.046Z,30.52
2022-09-12T15:33:25.906Z,30.49
2022-09-12T15:35:53.849Z,30.49
2022-09-12T15:38:25.762Z,30.46
2022-09-12T15:40:54.723Z,30.45
2022-09-12T15:43:23.447Z,30.44
2022-09-12T15:45:52.353Z,30.42
2022-09-12T15:48:21.308Z,30.36
2022-09-12T15:50:49.233Z,30.31
2022-09-12T15:53:18.181Z,30.20
2022-09-12T15:55:46.199Z,30.08
2022-09-12T15:58:14.174Z,29.92
2022-09-12T16:00:41.940Z,29.77
2022-09-12T16:03:25.592Z,29.61
2022-09-12T16:05:58.644Z,29.48
2022-09-12T16:08:26.766Z,29.53
2022-09-12T16:11:02.061Z,29.36
2022-09-12T16:13:30.058Z,29.21
2022-09-12T16:15:59.424Z,29.12
2022-09-12T16:18:28.335Z,29.00
2022-09-12T16:20:57.261Z,28.91
2022-09-12T16:23:25.320Z,28.82
2022-09-12T16:26:05.713Z,28.71
2022-09-12T16:28:33.898Z,28.59
2022-09-12T16:31:05.573Z,28.46
2022-09-12T16:33:33.939Z,28.34
2022-09-12T16:36:11.002Z,28.21
2022-09-12T16:38:47.652Z,28.07
2022-09-12T16:41:17.773Z,27.93
2022-09-12T16:44:11.225Z,27.79
2022-09-12T16:46:39.048Z,27.69
2022-09-12T16:49:07.158Z,27.56
2022-09-12T16:51:37.984Z,27.45
2022-09-12T16:54:05.732Z,27.34
2022-09-12T16:56:33.515Z,27.22
2022-09-12T16:59:01.263Z,27.10
2022-09-12T17:01:29.091Z,26.97
2022-09-12T17:03:58.824Z,26.86
2022-09-12T17:06:27.855Z,26.78
2022-09-12T17:09:00.865Z,26.71
2022-09-12T17:11:36.522Z,26.63
2022-09-12T17:14:08.827Z,26.53
2022-09-12T17:16:46.917Z,26.45
2022-09-12T17:19:28.154Z,26.35
2022-09-12T17:21:57.534Z,26.23
2022-09-12T17:24:25.897Z,26.14
2022-09-12T17:26:53.876Z,26.04
2022-09-12T17:29:21.612Z,25.95
2022-09-12T17:31:49.407Z,25.88
2022-09-12T17:34:17.834Z,25.78
2022-09-12T17:36:48.452Z,25.69
2022-09-12T17:39:16.379Z,25.59
2022-09-12T17:41:46.095Z,25.50
2022-09-12T17:44:15.145Z,25.41
2022-09-12T17:46:43.574Z,25.31
2022-09-12T17:49:17.353Z,25.23
2022-09-12T17:51:45.522Z,25.15
2022-09-12T17:54:16.698Z,25.05
2022-09-12T17:56:46.600Z,24.96
2022-09-12T17:59:20.606Z,24.88
2022-09-12T18:02:07.605Z,24.79
2022-09-12T18:04:36.302Z,24.71
2022-09-12T18:07:04.430Z,24.61
2022-09-12T18:09:32.705Z,24.53
2022-09-12T18:12:00.486Z,24.45
2022-09-12T18:14:28.667Z,24.36
2022-09-12T18:17:00.341Z,24.29
2022-09-12T18:19:28.401Z,24.23
2022-09-12T18:21:56.521Z,24.15
2022-09-12T18:24:24.627Z,24.06
2022-09-12T18:26:52.434Z,23.99
2022-09-12T18:29:20.616Z,23.92
2022-09-12T18:31:48.746Z,23.88
2022-09-12T18:34:18.205Z,23.83
2022-09-12T18:36:49.562Z,23.78
2022-09-12T18:39:18.525Z,23.71
2022-09-12T18:41:46.480Z,23.63
2022-09-12T18:44:14.269Z,23.55
2022-09-12T18:46:42.127Z,23.51
2022-09-12T18:49:10.719Z,23.46
2022-09-12T18:51:40.238Z,23.41
2022-09-12T18:54:14.016Z,23.35
2022-09-12T18:56:43.965Z,23.29
2022-09-12T18:59:14.152Z,23.22
2022-09-12T19:01:43.003Z,23.18
2022-09-12T19:04:13.017Z,23.14
2022-09-12T19:06:44.569Z,23.10
2022-09-12T19:09:15.469Z,23.05
2022-09-12T19:11:49.646Z,23.00
2022-09-12T19:14:42.909Z,22.98
2022-09-12T19:17:11.097Z,22.96
2022-09-12T19:19:40.688Z,22.91
2022-09-12T19:22:08.526Z,22.90
2022-09-12T19:24:36.248Z,22.90
2022-09-12T19:27:05.213Z,22.88
2022-09-12T19:29:33.048Z,22.87
2022-09-12T19:32:00.769Z,22.84
2022-09-12T19:34:28.559Z,22.84
2022-09-12T19:36:56.440Z,22.83
2022-09-12T19:39:24.162Z,22.83
2022-09-12T19:41:51.884Z,22.83
2022-09-12T19:44:20.217Z,22.85
2022-09-12T19:46:48.397Z,22.86
2022-09-12T19:49:16.240Z,22.88
2022-09-12T19:51:44.033Z,22.86
2022-09-12T19:54:11.830Z,22.85
2022-09-12T19:56:39.611Z,22.81
2022-09-12T19:59:07.418Z,22.84
2022-09-12T20:01:37.243Z,22.83
2022-09-12T20:04:06.780Z,22.84
2022-09-12T20:06:35.275Z,22.83
2022-09-12T20:09:03.252Z,22.77
2022-09-12T20:11:31.552Z,22.70
2022-09-12T20:13:59.575Z,22.66
2022-09-12T20:16:31.225Z,22.61
2022-09-12T20:19:03.870Z,22.56
2022-09-12T20:21:34.159Z,22.54
2022-09-12T20:24:14.537Z,22.50
2022-09-12T20:26:43.060Z,22.44
2022-09-12T20:29:11.181Z,22.40
2022-09-12T20:31:41.606Z,22.33
2022-09-12T20:34:17.531Z,22.30
2022-09-12T20:36:46.243Z,22.30
2022-09-12T20:39:22.741Z,22.31
2022-09-12T20:41:50.992Z,22.32
2022-09-12T20:44:18.900Z,22.32
2022-09-12T20:46:47.024Z,22.31
2022-09-12T20:49:14.769Z,22.29
2022-09-12T20:51:43.013Z,22.28
2022-09-12T20:54:11.370Z,22.25
2022-09-12T20:56:39.141Z,22.23
2022-09-12T20:59:07.078Z,22.25
2022-09-12T21:01:34.918Z,22.25
2022-09-12T21:04:03.462Z,22.22
2022-09-12T21:06:32.407Z,22.19
2022-09-12T21:09:00.560Z,22.19
2022-09-12T21:11:29.210Z,22.19
2022-09-12T21:13:57.912Z,22.17
2022-09-12T21:16:25.763Z,22.15
2022-09-12T21:19:00.161Z,22.13
2022-09-12T21:21:27.979Z,22.12
2022-09-12T21:24:05.598Z,22.11
2022-09-12T21:26:33.344Z,22.11
2022-09-12T21:29:01.442Z,22.08
2022-09-12T21:31:29.245Z,22.01
2022-09-12T21:33:57.083Z,21.93
2022-09-12T21:36:25.241Z,21.82
2022-09-12T21:38:53.093Z,21.76
2022-09-12T21:41:20.860Z,21.70
2022-09-12T21:43:48.696Z,21.63
2022-09-12T21:46:16.662Z,21.53
2022-09-12T21:48:44.412Z,21.46
2022-09-12T21:51:12.160Z,21.35
2022-09-12T21:53:40.233Z,21.30
2022-09-12T21:56:08.964Z,21.26
2022-09-12T21:58:37.714Z,21.22
2022-09-12T22:01:08.648Z,21.26
2022-09-12T22:03:36.670Z,21.30
2022-09-12T22:06:06.828Z,21.32
2022-09-12T22:08:37.266Z,21.33
2022-09-12T22:11:09.700Z,21.35
2022-09-12T22:13:43.926Z,21.35
2022-09-12T22:16:12.713Z,21.35
2022-09-12T22:18:41.082Z,21.34
2022-09-12T22:21:16.199Z,21.36
2022-09-12T22:24:02.620Z,21.33
2022-09-12T22:26:35.032Z,21.31
2022-09-12T22:29:02.788Z,21.28
2022-09-12T22:31:31.049Z,21.24
2022-09-12T22:33:59.042Z,21.16
2022-09-12T22:36:31.007Z,21.15
2022-09-12T22:38:59.786Z,21.16
2022-09-12T22:41:28.509Z,21.17
2022-09-12T22:43:57.425Z,21.19
2022-09-12T22:46:25.579Z,21.19
2022-09-12T22:48:55.696Z,21.19
2022-09-12T22:51:23.613Z,21.19
2022-09-12T22:53:51.887Z,21.21
2022-09-12T22:56:19.699Z,21.21
2022-09-12T22:58:47.785Z,21.18
2022-09-12T23:01:15.788Z,21.15
2022-09-12T23:03:43.717Z,21.04
2022-09-12T23:06:12.260Z,21.01
2022-09-12T23:08:40.254Z,20.96
2022-09-12T23:11:12.899Z,20.84
2022-09-12T23:13:44.861Z,20.85
2022-09-12T23:16:25.886Z,20.88
2022-09-12T23:18:53.813Z,20.92
2022-09-12T23:21:22.330Z,20.91
2022-09-12T23:23:50.501Z,20.93
2022-09-12T23:26:21.730Z,20.92
2022-09-12T23:28:56.118Z,20.92
2022-09-12T23:31:29.806Z,20.89
2022-09-12T23:34:02.078Z,20.91
2022-09-12T23:36:30.516Z,20.90
2022-09-12T23:38:58.442Z,20.91
2022-09-12T23:41:26.308Z,20.90
2022-09-12T23:43:54.447Z,20.90
2022-09-12T23:46:22.691Z,20.89
2022-09-12T23:48:53.219Z,20.90
2022-09-12T23:51:24.024Z,20.89
2022-09-12T23:53:51.781Z,20.90
2022-09-12T23:56:19.577Z,20.87
2022-09-12T23:58:47.645Z,20.84
